createdAt,value
2022-08-10T00:00:12.183Z,100839.91
2022-08-10T00:02:41.065Z,100833.76
2022-08-10T00:05:11.393Z,100833.67
2022-08-10T00:07:43.165Z,100821.94
2022-08-10T00:10:13.601Z,100822.24
2022-08-10T00:12:54.425Z,100821.98
2022-08-10T00:15:51.947Z,100820.85
2022-08-10T00:17:47.017Z,100827.55
2022-08-10T00:20:16.472Z,100824.72
2022-08-10T00:22:52.964Z,100828.02
2022-08-10T00:25:17.897Z,100823.84
2022-08-10T00:28:01.623Z,100822.15
2022-08-10T00:30:19.781Z,100821.86
2022-08-10T00:32:49.179Z,100822.32
2022-08-10T00:35:18.639Z,100823.71
2022-08-10T00:38:09.402Z,100824.81
2022-08-10T00:40:39.436Z,100818.65
2022-08-10T00:43:23.319Z,100815.27
2022-08-10T00:45:58.778Z,100815.27
2022-08-10T00:48:24.620Z,100815.83
2022-08-10T00:50:56.322Z,100819.16
2022-08-10T00:53:27.530Z,100817.97
2022-08-10T00:57:14.045Z,100815.44
2022-08-10T00:58:31.184Z,100815.98
2022-08-10T01:01:01.374Z,100809.03
2022-08-10T01:04:39.612Z,100807.64
2022-08-10T01:06:18.776Z,100805.65
2022-08-10T01:09:02.666Z,100808.68
2022-08-10T01:12:41.010Z,100805.35
2022-08-10T01:14:38.543Z,100810.03
2022-08-10T01:17:17.963Z,100810.82
2022-08-10T01:19:58.880Z,100815.24
2022-08-10T01:22:49.073Z,100810.53
2022-08-10T01:26:12.329Z,100806.90
2022-08-10T01:28:44.326Z,100811.82
2022-08-10T01:31:16.471Z,100807.30
2022-08-10T01:33:58.893Z,100810.63
2022-08-10T01:36:32.341Z,100809.73
2022-08-10T01:39:04.054Z,100804.08
2022-08-10T01:41:46.522Z,100808.55
2022-08-10T01:44:20.160Z,100805.56
2022-08-10T01:46:56.723Z,100805.52
2022-08-10T01:49:23.955Z,100806.86
2022-08-10T01:52:00.457Z,100800.20
2022-08-10T01:54:29.408Z,100802.98
2022-08-10T01:56:58.729Z,100798.52
2022-08-10T01:59:35.326Z,100806.61
2022-08-10T02:02:10.839Z,100812.42
2022-08-10T02:04:42.162Z,100811.58
2022-08-10T02:07:16.327Z,100814.31
2022-08-10T02:09:51.505Z,100812.92
2022-08-10T02:12:23.872Z,100804.58
2022-08-10T02:15:02.125Z,100805.62
2022-08-10T02:17:58.374Z,100801.39
2022-08-10T02:20:23.110Z,100799.11
2022-08-10T02:22:58.836Z,100802.69
2022-08-10T02:25:42.166Z,100795.44
2022-08-10T02:28:00.133Z,100792.06
2022-08-10T02:30:29.254Z,100795.39
2022-08-10T02:32:59.316Z,100793.16
2022-08-10T02:35:33.485Z,100797.82
2022-08-10T02:38:03.986Z,100790.27
2022-08-10T02:45:01.996Z,100789.18
2022-08-10T02:45:23.046Z,100785.31
2022-08-10T02:46:05.894Z,100785.91
2022-08-10T02:48:43.467Z,100795.63
2022-08-10T02:51:18.380Z,100807.84
2022-08-10T02:53:56.133Z,100805.14
2022-08-10T02:56:45.658Z,100810.05
2022-08-10T02:59:18.397Z,100805.83
2022-08-10T03:01:49.502Z,100802.11
2022-08-10T03:04:57.859Z,100799.27
2022-08-10T03:07:05.559Z,100807.55
2022-08-10T03:09:35.597Z,100804.17
2022-08-10T03:12:35.897Z,100808.89
2022-08-10T03:14:37.377Z,100815.84
2022-08-10T03:17:07.951Z,100818.56
2022-08-10T03:20:34.894Z,100812.64
2022-08-10T03:22:08.606Z,100812.64
2022-08-10T03:24:37.798Z,100812.34
2022-08-10T03:27:07.024Z,100809.33
2022-08-10T03:30:32.021Z,100803.52
2022-08-10T03:32:08.404Z,100809.63
2022-08-10T03:34:38.020Z,100805.45
2022-08-10T03:37:07.550Z,100809.57
2022-08-10T03:39:36.752Z,100821.17
2022-08-10T03:42:07.641Z,100825.34
2022-08-10T03:44:36.651Z,100828.12
2022-08-10T03:47:16.106Z,100835.06
2022-08-10T03:49:38.664Z,100834.70
2022-08-10T03:52:07.732Z,100825.47
2022-08-10T03:54:37.219Z,100829.64
2022-08-10T03:57:06.655Z,100832.72
2022-08-10T03:59:36.846Z,100841.41
2022-08-10T04:02:43.941Z,100839.17
2022-08-10T04:04:40.618Z,100837.73
2022-08-10T04:07:09.774Z,100839.42
2022-08-10T04:09:53.586Z,100838.03
2022-08-10T04:12:10.291Z,100832.23
2022-08-10T04:14:49.385Z,100821.17
2022-08-10T04:17:13.951Z,100808.91
2022-08-10T04:19:48.711Z,100806.55
2022-08-10T04:22:22.432Z,100805.76
2022-08-10T04:24:59.403Z,100800.01
2022-08-10T04:27:29.596Z,100798.42
2022-08-10T04:29:59.243Z,100802.70
2022-08-10T04:32:32.092Z,100806.67
2022-08-10T04:35:01.184Z,100825.83
2022-08-10T04:37:30.697Z,100824.00
2022-08-10T04:40:00.004Z,100835.50
2022-08-10T04:42:29.739Z,100839.22
2022-08-10T04:44:58.651Z,100855.95
2022-08-10T04:47:57.732Z,100844.28
2022-08-10T04:49:58.380Z,100850.34
2022-08-10T04:52:28.190Z,100838.59
2022-08-10T04:54:57.362Z,100828.40
2022-08-10T04:57:27.665Z,100831.77
2022-08-10T04:59:57.310Z,100833.77
2022-08-10T05:02:31.234Z,100833.86
2022-08-10T05:04:58.061Z,100839.03
2022-08-10T05:07:27.618Z,100835.51
2022-08-10T05:10:04.109Z,100835.56
2022-08-10T05:12:27.756Z,100838.44
2022-08-10T05:14:58.232Z,100831.78
2022-08-10T05:17:27.654Z,100828.51
2022-08-10T05:20:02.252Z,100825.23
2022-08-10T05:22:27.181Z,100828.31
2022-08-10T05:24:56.639Z,100827.71
2022-08-10T05:27:25.499Z,100830.30
2022-08-10T05:30:01.590Z,100826.42
2022-08-10T05:32:25.581Z,100837.59
2022-08-10T05:34:54.546Z,100825.58
2022-08-10T05:38:10.909Z,100824.23
2022-08-10T05:39:56.716Z,100828.84
2022-08-10T05:42:27.056Z,100833.41
2022-08-10T05:44:56.333Z,100839.86
2022-08-10T05:47:26.504Z,100842.72
2022-08-10T05:49:57.964Z,100850.48
2022-08-10T05:52:27.413Z,100852.88
2022-08-10T05:54:59.609Z,100856.80
2022-08-10T05:57:27.416Z,100862.67
2022-08-10T06:00:11.326Z,100861.23
2022-08-10T06:02:38.808Z,100859.59
2022-08-10T06:05:17.179Z,100860.52
2022-08-10T06:08:04.768Z,100856.98
2022-08-10T06:10:35.602Z,100844.11
2022-08-10T06:13:30.313Z,100848.88
2022-08-10T06:15:57.708Z,100845.59
2022-08-10T06:18:26.797Z,100844.84
2022-08-10T06:20:56.316Z,100838.52
2022-08-10T06:23:27.919Z,100845.65
2022-08-10T06:26:10.722Z,100841.56
2022-08-10T06:28:31.394Z,100842.11
2022-08-10T06:31:01.397Z,100847.67
2022-08-10T06:33:31.682Z,100847.72
2022-08-10T06:36:01.117Z,100853.08
2022-08-10T06:38:32.854Z,100847.05
2022-08-10T06:41:07.070Z,100850.93
2022-08-10T06:43:40.446Z,100850.34
2022-08-10T06:46:13.097Z,100845.31
2022-08-10T06:48:54.237Z,100845.28
2022-08-10T06:51:29.808Z,100843.63
2022-08-10T06:54:03.311Z,100850.00
2022-08-10T06:56:39.846Z,100846.58
2022-08-10T06:59:30.647Z,100842.06
2022-08-10T07:02:12.903Z,100836.80
2022-08-10T07:04:59.398Z,100843.25
2022-08-10T07:07:31.876Z,100847.22
2022-08-10T07:10:02.938Z,100850.25
2022-08-10T07:12:32.418Z,100853.63
2022-08-10T07:15:01.624Z,100852.83
2022-08-10T07:17:33.880Z,100847.30
2022-08-10T07:20:03.130Z,100850.37
2022-08-10T07:23:22.771Z,100850.88
2022-08-10T07:25:07.597Z,100857.89
2022-08-10T07:27:59.195Z,100855.15
2022-08-10T07:30:13.160Z,100857.98
2022-08-10T07:32:48.446Z,100856.33
2022-08-10T07:35:23.329Z,100858.31
2022-08-10T07:37:57.097Z,100858.10
2022-08-10T07:40:52.762Z,100852.11
2022-08-10T07:43:34.408Z,100840.82
2022-08-10T07:46:15.872Z,100844.28
2022-08-10T07:48:53.847Z,100831.89
2022-08-10T07:51:28.644Z,100833.72
2022-08-10T07:54:05.948Z,100846.63
2022-08-10T07:56:48.866Z,100854.19
2022-08-10T07:59:17.740Z,100859.47
2022-08-10T08:01:54.982Z,100850.00
2022-08-10T08:04:25.977Z,100850.59
2022-08-10T08:06:57.997Z,100847.09
2022-08-10T08:09:28.219Z,100836.31
2022-08-10T08:11:59.572Z,100840.27
2022-08-10T08:14:30.144Z,100842.20
2022-08-10T08:17:00.926Z,100839.12
2022-08-10T08:19:37.643Z,100847.82
2022-08-10T08:24:06.198Z,100854.79
2022-08-10T08:24:36.785Z,100858.67
2022-08-10T08:27:07.488Z,100851.71
2022-08-10T08:29:37.690Z,100853.39
2022-08-10T08:32:08.248Z,100840.85
2022-08-10T08:34:40.674Z,100834.44
2022-08-10T08:37:11.203Z,100843.05
2022-08-10T08:39:44.190Z,100842.20
2022-08-10T08:42:38.114Z,100848.05
2022-08-10T08:46:01.273Z,100846.06
2022-08-10T08:48:35.072Z,100840.78
2022-08-10T08:52:17.030Z,100837.45
2022-08-10T08:54:43.917Z,100839.97
2022-08-10T08:57:53.726Z,100839.42
2022-08-10T09:00:46.623Z,100836.92
2022-08-10T09:03:43.672Z,100841.40
2022-08-10T09:06:39.118Z,100846.20
2022-08-10T09:09:39.538Z,100848.05
2022-08-10T09:12:47.786Z,100855.38
2022-08-10T09:15:41.079Z,100850.13
2022-08-10T09:18:01.793Z,100837.37
2022-08-10T09:21:09.392Z,100834.70
2022-08-10T09:24:06.454Z,100826.47
2022-08-10T09:26:51.741Z,100835.00
2022-08-10T09:29:28.396Z,100844.09
2022-08-10T09:33:05.815Z,100837.66
2022-08-10T09:36:23.352Z,100835.43
2022-08-10T09:38:01.735Z,100832.09
2022-08-10T09:40:59.334Z,100835.48
2022-08-10T09:43:40.352Z,100844.19
2022-08-10T09:46:36.986Z,100826.86
2022-08-10T09:49:54.042Z,100845.02
2022-08-10T09:52:27.706Z,100835.23
2022-08-10T09:56:17.824Z,100823.54
2022-08-10T09:58:06.732Z,100826.67
2022-08-10T10:00:41.477Z,100821.95
2022-08-10T10:03:25.844Z,100822.23
2022-08-10T10:06:00.066Z,100824.23
2022-08-10T10:08:38.319Z,100826.25
2022-08-10T10:11:31.107Z,100816.22
2022-08-10T10:14:26.234Z,100813.73
2022-08-10T10:17:10.141Z,100824.09
2022-08-10T10:19:51.046Z,100820.45
2022-08-10T10:22:47.162Z,100825.48
2022-08-10T10:25:50.253Z,100822.95
2022-08-10T10:28:20.466Z,100822.16
2022-08-10T10:31:28.583Z,100813.55
2022-08-10T10:34:27.887Z,100803.56
2022-08-10T10:36:58.335Z,100801.66
2022-08-10T10:39:27.860Z,100813.68
2022-08-10T10:42:44.886Z,100812.30
2022-08-10T10:45:25.778Z,100803.65
2022-08-10T10:48:24.358Z,100800.33
2022-08-10T10:51:16.616Z,100793.91
2022-08-10T10:54:24.920Z,100785.53
2022-08-10T10:57:20.339Z,100787.52
2022-08-10T11:00:08.230Z,100780.28
2022-08-10T11:02:56.902Z,100783.12
2022-08-10T11:05:57.126Z,100791.55
2022-08-10T11:08:30.939Z,100791.02
2022-08-10T11:11:13.076Z,100791.55
2022-08-10T11:14:25.726Z,100793.50
2022-08-10T11:16:57.288Z,100784.26
2022-08-10T11:20:01.599Z,100781.45
2022-08-10T11:22:54.302Z,100775.56
2022-08-10T11:25:33.645Z,100774.45
2022-08-10T11:28:20.555Z,100780.89
2022-08-10T11:31:06.105Z,100786.50
2022-08-10T11:34:49.140Z,100778.38
2022-08-10T11:36:51.709Z,100781.45
2022-08-10T11:39:54.130Z,100774.72
2022-08-10T11:42:35.880Z,100780.30
2022-08-10T11:45:12.655Z,100774.69
2022-08-10T11:47:54.583Z,100772.17
2022-08-10T11:50:35.416Z,100773.02
2022-08-10T11:53:10.437Z,100769.69
2022-08-10T11:55:40.195Z,100769.70
2022-08-10T11:58:31.356Z,100766.37
2022-08-10T12:01:04.696Z,100767.23
2022-08-10T12:03:38.981Z,100768.38
2022-08-10T12:06:13.807Z,100773.13
2022-08-10T12:10:03.452Z,100769.79
2022-08-10T12:11:33.334Z,100775.69
2022-08-10T12:14:21.445Z,100779.61
2022-08-10T12:16:46.652Z,100776.01
2022-08-10T12:19:28.849Z,100779.65
2022-08-10T12:22:12.767Z,100776.57
2022-08-10T12:25:00.192Z,100776.58
2022-08-10T12:27:41.413Z,100773.78
2022-08-10T12:30:16.858Z,100761.75
2022-08-10T12:33:04.761Z,100757.27
2022-08-10T12:36:18.441Z,100767.89
2022-08-10T12:39:08.096Z,100763.94
2022-08-10T12:41:56.678Z,100762.59
2022-08-10T12:44:41.630Z,100750.29
2022-08-10T12:47:29.832Z,100755.61
2022-08-10T12:50:29.939Z,100756.17
2022-08-10T12:53:06.737Z,100756.17
2022-08-10T12:55:39.583Z,100754.21
2022-08-10T12:59:00.209Z,100756.15
2022-08-10T13:01:14.776Z,100752.52
2022-08-10T13:04:21.886Z,100747.77
2022-08-10T13:06:02.054Z,100747.22
2022-08-10T13:08:48.976Z,100750.02
2022-08-10T13:12:33.910Z,100741.63
2022-08-10T13:13:58.719Z,100747.22
2022-08-10T13:16:31.268Z,100749.19
2022-08-10T13:19:04.634Z,100749.75
2022-08-10T13:21:37.136Z,100749.19
2022-08-10T13:24:23.884Z,100746.10
2022-08-10T13:27:25.107Z,100744.98
2022-08-10T13:29:51.356Z,100747.50
2022-08-10T13:32:31.233Z,100745.55
2022-08-10T13:35:15.599Z,100746.94
2022-08-10T13:37:48.203Z,100740.77
2022-08-10T13:40:21.591Z,100745.80
2022-08-10T13:42:53.974Z,100746.03
2022-08-10T13:45:26.388Z,100741.27
2022-08-10T13:48:11.218Z,100739.31
2022-08-10T13:50:42.837Z,100737.06
2022-08-10T13:53:15.687Z,100737.62
2022-08-10T13:55:55.262Z,100728.95
2022-08-10T13:58:29.772Z,100739.83
2022-08-10T14:01:14.233Z,100736.45
2022-08-10T14:03:46.777Z,100731.98
2022-08-10T14:06:19.961Z,100732.53
2022-08-10T14:08:56.499Z,100729.73
2022-08-10T14:11:26.483Z,100725.25
2022-08-10T14:13:58.806Z,100722.99
2022-08-10T14:16:28.712Z,100719.34
2022-08-10T14:19:01.734Z,100719.90
2022-08-10T14:21:30.498Z,100714.59
2022-08-10T14:23:59.066Z,100705.37
2022-08-10T14:26:31.270Z,100702.03
2022-08-10T14:29:06.661Z,100703.44
2022-08-10T14:31:38.130Z,100712.38
2022-08-10T14:34:10.797Z,100714.61
2022-08-10T14:36:55.248Z,100723.00
2022-08-10T14:39:35.610Z,100726.08
2022-08-10T14:42:16.764Z,100723.56
2022-08-10T14:44:59.005Z,100710.42
2022-08-10T14:47:59.307Z,100717.98
2022-08-10T14:50:00.548Z,100715.73
2022-08-10T14:52:30.948Z,100720.77
2022-08-10T14:55:04.400Z,100715.73
2022-08-10T14:58:16.541Z,100708.47
2022-08-10T15:00:25.521Z,100711.27
2022-08-10T15:02:56.323Z,100717.15
2022-08-10T15:05:23.455Z,100715.75
2022-08-10T15:07:58.948Z,100715.47
2022-08-10T15:10:25.272Z,100705.95
2022-08-10T15:12:54.595Z,100705.09
2022-08-10T15:15:27.981Z,100706.48
2022-08-10T15:17:58.231Z,100705.91
2022-08-10T15:20:28.650Z,100713.17
2022-08-10T15:23:30.581Z,100701.98
2022-08-10T15:25:57.756Z,100700.86
2022-08-10T15:28:18.315Z,100695.55
2022-08-10T15:30:56.254Z,100702.83
2022-08-10T15:34:04.978Z,100701.71
2022-08-10T15:36:37.265Z,100704.50
2022-08-10T15:39:16.466Z,100711.20
2022-08-10T15:41:58.077Z,100714.52
2022-08-10T15:44:13.663Z,100706.40
2022-08-10T15:46:52.170Z,100701.64
2022-08-10T15:49:27.379Z,100692.12
2022-08-10T15:52:09.715Z,100704.60
2022-08-10T15:54:55.057Z,100701.79
2022-08-10T15:57:29.485Z,100707.08
2022-08-10T16:00:09.559Z,100710.98
2022-08-10T16:02:55.447Z,100716.00
2022-08-10T16:05:40.879Z,100717.40
2022-08-10T16:08:04.522Z,100709.29
2022-08-10T16:10:53.628Z,100712.08
2022-08-10T16:13:51.037Z,100710.12
2022-08-10T16:15:59.400Z,100707.32
2022-08-10T16:18:31.431Z,100702.29
2022-08-10T16:21:07.589Z,100701.72
2022-08-10T16:23:40.955Z,100705.06
2022-08-10T16:26:15.048Z,100704.21
2022-08-10T16:28:48.453Z,100707.00
2022-08-10T16:31:22.631Z,100713.15
2022-08-10T16:33:55.518Z,100715.37
2022-08-10T16:36:54.271Z,100721.80
2022-08-10T16:39:59.314Z,100722.06
2022-08-10T16:42:11.650Z,100722.60
2022-08-10T16:45:05.864Z,100714.76
2022-08-10T16:47:39.318Z,100703.86
2022-08-10T16:50:10.275Z,100709.98
2022-08-10T16:52:40.225Z,100714.16
2022-08-10T16:55:23.696Z,100717.77
2022-08-10T16:57:45.272Z,100720.83
2022-08-10T17:00:19.049Z,100723.60
2022-08-10T17:02:52.575Z,100723.03
2022-08-10T17:06:03.652Z,100718.83
2022-08-10T17:08:05.009Z,100709.88
2022-08-10T17:10:35.532Z,100713.18
2022-08-10T17:13:06.351Z,100715.66
2022-08-10T17:15:35.805Z,100715.37
2022-08-10T17:18:04.894Z,100713.96
2022-08-10T17:20:41.327Z,100720.09
2022-08-10T17:23:11.734Z,100725.68
2022-08-10T17:25:45.799Z,100727.08
2022-08-10T17:28:33.121Z,100732.03
2022-08-10T17:30:57.953Z,100726.42
2022-08-10T17:33:25.191Z,100720.27
2022-08-10T17:35:55.188Z,100725.22
2022-08-10T17:38:25.224Z,100729.94
2022-08-10T17:41:13.213Z,100733.55
2022-08-10T17:43:58.238Z,100733.55
2022-08-10T17:46:15.103Z,100730.16
2022-08-10T17:48:44.534Z,100731.52
2022-08-10T17:51:15.212Z,100735.69
2022-08-10T17:53:47.771Z,100739.00
2022-08-10T17:56:17.956Z,100740.38
2022-08-10T17:58:50.645Z,100755.16
2022-08-10T18:01:42.108Z,100750.11
2022-08-10T18:04:01.355Z,100752.03
2022-08-10T18:06:30.616Z,100759.27
2022-08-10T18:09:40.544Z,100758.42
2022-08-10T18:12:27.741Z,100758.40
2022-08-10T18:14:53.231Z,100765.34
2022-08-10T18:17:25.612Z,100758.92
2022-08-10T18:19:58.557Z,100750.82
2022-08-10T18:22:27.366Z,100748.81
2022-08-10T18:24:58.571Z,100751.29
2022-08-10T18:27:46.557Z,100754.34
2022-08-10T18:30:04.364Z,100746.78
2022-08-10T18:32:35.559Z,100755.70
2022-08-10T18:35:07.197Z,100750.68
2022-08-10T18:37:36.828Z,100746.78
2022-08-10T18:40:10.485Z,100744.00
2022-08-10T18:42:50.247Z,100745.11
2022-08-10T18:45:29.656Z,100743.39
2022-08-10T18:48:11.081Z,100743.10
2022-08-10T18:50:52.657Z,100746.44
2022-08-10T18:53:33.327Z,100747.83
2022-08-10T18:56:43.494Z,100744.69
2022-08-10T19:00:08.447Z,100753.58
2022-08-10T19:02:49.108Z,100747.09
2022-08-10T19:06:07.417Z,100754.05
2022-08-10T19:08:49.970Z,100749.86
2022-08-10T19:11:56.726Z,100744.25
2022-08-10T19:14:41.339Z,100742.86
2022-08-10T19:18:03.795Z,100734.73
2022-08-10T19:20:39.331Z,100733.85
2022-08-10T19:23:32.127Z,100739.08
2022-08-10T19:26:44.646Z,100739.59
2022-08-10T19:30:12.533Z,100742.05
2022-08-10T19:33:27.839Z,100743.38
2022-08-10T19:36:14.600Z,100751.19
2022-08-10T19:39:07.258Z,100751.45
2022-08-10T19:41:46.400Z,100747.50
2022-08-10T19:44:50.349Z,100744.09
2022-08-10T19:47:37.782Z,100742.37
2022-08-10T19:50:37.876Z,100744.83
2022-08-10T19:53:24.815Z,100749.53
2022-08-10T19:56:34.124Z,100745.64
2022-08-10T19:59:10.371Z,100735.34
2022-08-10T20:01:55.194Z,100737.83
2022-08-10T20:04:20.189Z,100736.98
2022-08-10T20:07:10.695Z,100737.28
2022-08-10T20:09:51.348Z,100740.03
2022-08-10T20:12:43.046Z,100735.27
2022-08-10T20:15:20.660Z,100738.90
2022-08-10T20:18:06.125Z,100745.02
2022-08-10T20:20:49.840Z,100742.52
2022-08-10T20:23:35.249Z,100744.80
2022-08-10T20:26:13.335Z,100747.33
2022-08-10T20:29:08.287Z,100735.92
2022-08-10T20:31:41.501Z,100735.92
2022-08-10T20:34:26.066Z,100738.16
2022-08-10T20:37:09.812Z,100739.00
2022-08-10T20:39:55.174Z,100730.35
2022-08-10T20:42:36.205Z,100707.45
2022-08-10T20:45:09.240Z,100686.52
2022-08-10T20:47:54.095Z,100683.09
2022-08-10T20:50:58.384Z,100685.81
2022-08-10T20:53:29.365Z,100702.41
2022-08-10T20:56:31.745Z,100725.42
2022-08-10T20:59:33.772Z,100739.23
2022-08-10T21:02:28.704Z,100747.17
2022-08-10T21:05:03.748Z,100751.85
2022-08-10T21:08:02.079Z,100752.95
2022-08-10T21:11:05.803Z,100746.17
2022-08-10T21:14:09.439Z,100743.30
2022-08-10T21:17:19.255Z,100736.58
2022-08-10T21:20:15.682Z,100733.66
2022-08-10T21:22:47.588Z,100726.28
2022-08-10T21:25:29.771Z,100720.59
2022-08-10T21:28:29.430Z,100721.93
2022-08-10T21:31:15.900Z,100723.03
2022-08-10T21:34:32.374Z,100720.29
2022-08-10T21:37:40.124Z,100714.23
2022-08-10T21:41:18.322Z,100717.47
2022-08-10T21:43:49.522Z,100717.58
2022-08-10T21:47:03.809Z,100716.44
2022-08-10T21:50:07.159Z,100713.66
2022-08-10T21:53:04.371Z,100703.25
2022-08-10T21:56:29.711Z,100695.31
2022-08-10T21:59:28.668Z,100686.12
2022-08-10T22:02:28.214Z,100677.29
2022-08-10T22:05:20.163Z,100664.78
2022-08-10T22:08:12.772Z,100661.41
2022-08-10T22:11:13.382Z,100660.02
2022-08-10T22:14:06.474Z,100660.06
2022-08-10T22:18:10.541Z,100665.58
2022-08-10T22:20:06.585Z,100675.56
2022-08-10T22:23:11.354Z,100682.21
2022-08-10T22:26:33.669Z,100696.95
2022-08-10T22:29:42.321Z,100708.37
2022-08-10T22:32:42.390Z,100711.65
2022-08-10T22:36:04.475Z,100702.72
2022-08-10T22:40:10.828Z,100696.75
2022-08-10T22:42:59.143Z,100695.81
2022-08-10T22:45:34.030Z,100681.81
2022-08-10T22:48:24.744Z,100686.53
2022-08-10T22:50:56.398Z,100683.70
2022-08-10T22:54:10.839Z,100671.10
2022-08-10T22:56:59.834Z,100654.04
2022-08-10T22:59:30.947Z,100641.14
2022-08-10T23:02:12.148Z,100641.73
2022-08-10T23:05:00.222Z,100648.98
2022-08-10T23:07:34.515Z,100645.11
2022-08-10T23:10:10.834Z,100636.53
2022-08-10T23:12:54.087Z,100633.50
2022-08-10T23:15:49.200Z,100641.03
2022-08-10T23:18:47.790Z,100647.44
2022-08-10T23:21:18.822Z,100653.54
2022-08-10T23:23:48.666Z,100661.33
2022-08-10T23:26:27.295Z,100666.09
2022-08-10T23:28:59.928Z,100671.70
2022-08-10T23:31:50.235Z,100680.58
2022-08-10T23:34:00.100Z,100681.97
2022-08-10T23:36:35.642Z,100683.36
2022-08-10T23:39:26.415Z,100673.68
2022-08-10T23:41:40.858Z,100665.64
2022-08-10T23:44:13.171Z,100671.16
2022-08-10T23:46:46.655Z,100673.04
2022-08-10T23:49:16.718Z,100673.83
2022-08-10T23:51:55.379Z,100693.03
2022-08-10T23:54:21.820Z,100698.09
2022-08-10T23:56:56.881Z,100678.25
2022-08-10T23:59:29.732Z,100663.07
